createdAt,value
2023-03-22T00:00:00.272Z,67.60
2023-03-22T00:02:27.263Z,67.70
2023-03-22T00:04:54.404Z,67.80
2023-03-22T00:07:21.388Z,68.00
2023-03-22T00:09:48.306Z,67.90
2023-03-22T00:12:15.405Z,68.00
2023-03-22T00:14:42.900Z,68.10
2023-03-22T00:17:09.868Z,68.10
2023-03-22T00:19:37.417Z,69.00
2023-03-22T00:22:06.395Z,68.20
2023-03-22T00:24:33.364Z,68.30
2023-03-22T00:27:00.999Z,68.30
2023-03-22T00:29:28.012Z,68.40
2023-03-22T00:31:56.100Z,68.40
2023-03-22T00:34:23.134Z,68.50
2023-03-22T00:36:51.877Z,68.60
2023-03-22T00:39:18.823Z,68.80
2023-03-22T00:41:45.850Z,69.10
2023-03-22T00:44:12.758Z,69.20
2023-03-22T00:46:39.687Z,69.40
2023-03-22T00:49:06.608Z,69.40
2023-03-22T00:51:33.587Z,69.50
2023-03-22T00:54:00.668Z,69.50
2023-03-22T00:56:28.937Z,69.60
2023-03-22T00:59:01.397Z,69.60
2023-03-22T01:01:29.830Z,69.50
2023-03-22T01:03:56.894Z,69.50
2023-03-22T01:06:23.892Z,69.70
2023-03-22T01:08:51.161Z,69.80
2023-03-22T01:11:18.445Z,69.80
2023-03-22T01:13:45.628Z,69.90
2023-03-22T01:16:12.665Z,70.20
2023-03-22T01:18:40.752Z,70.20
2023-03-22T01:21:09.694Z,70.40
2023-03-22T01:23:37.648Z,70.60
2023-03-22T01:26:05.241Z,71.40
2023-03-22T01:28:32.268Z,70.70
2023-03-22T01:31:04.051Z,70.70
2023-03-22T01:33:31.359Z,70.80
2023-03-22T01:35:59.032Z,70.70
2023-03-22T01:38:26.573Z,70.80
2023-03-22T01:40:57.469Z,70.80
2023-03-22T01:43:24.965Z,70.90
2023-03-22T01:45:53.741Z,71.00
2023-03-22T01:48:46.495Z,71.00
2023-03-22T01:51:25.284Z,71.30
2023-03-22T01:54:42.885Z,71.40
2023-03-22T01:57:40.633Z,71.40
2023-03-22T02:00:15.973Z,71.20
2023-03-22T02:03:10.028Z,71.30
2023-03-22T02:05:44.149Z,71.20
2023-03-22T02:08:15.175Z,71.20
2023-03-22T02:10:58.736Z,71.20
2023-03-22T02:13:58.089Z,71.10
2023-03-22T02:17:10.490Z,71.30
2023-03-22T02:20:18.299Z,71.30
2023-03-22T02:23:13.105Z,71.30
2023-03-22T02:26:04.227Z,71.30
2023-03-22T02:29:08.159Z,71.30
2023-03-22T02:31:52.089Z,72.00
2023-03-22T02:34:32.588Z,71.30
2023-03-22T02:37:08.606Z,72.10
2023-03-22T02:39:48.387Z,71.30
2023-03-22T02:42:55.842Z,71.40
2023-03-22T02:45:27.780Z,71.50
2023-03-22T02:48:11.723Z,71.40
2023-03-22T02:51:08.042Z,71.60
2023-03-22T02:53:57.061Z,71.60
2023-03-22T02:56:30.696Z,71.60
2023-03-22T02:59:02.444Z,71.60
2023-03-22T03:01:42.464Z,71.70
2023-03-22T03:04:16.816Z,71.70
2023-03-22T03:06:47.494Z,71.70
2023-03-22T03:09:18.134Z,71.70
2023-03-22T03:11:51.296Z,71.70
2023-03-22T03:14:31.851Z,71.60
2023-03-22T03:17:42.343Z,71.60
2023-03-22T03:20:30.219Z,71.60
2023-03-22T03:23:13.858Z,71.40
2023-03-22T03:26:16.608Z,71.40
2023-03-22T03:28:57.223Z,71.30
2023-03-22T03:31:33.954Z,71.30
2023-03-22T03:34:27.238Z,71.30
2023-03-22T03:37:22.768Z,71.20
2023-03-22T03:40:02.461Z,71.20
2023-03-22T03:42:31.714Z,71.10
2023-03-22T03:44:59.552Z,71.10
2023-03-22T03:47:29.453Z,71.00
2023-03-22T03:49:56.537Z,70.90
2023-03-22T03:52:24.620Z,70.80
2023-03-22T03:54:52.029Z,70.80
2023-03-22T03:57:25.816Z,70.70
2023-03-22T03:59:52.782Z,70.70
2023-03-22T04:02:39.936Z,70.70
2023-03-22T04:05:08.784Z,70.70
2023-03-22T04:07:35.988Z,70.80
2023-03-22T04:10:04.019Z,70.80
2023-03-22T04:12:33.515Z,70.90
2023-03-22T04:15:12.448Z,70.90
2023-03-22T04:17:40.932Z,70.90
2023-03-22T04:20:11.062Z,71.00
2023-03-22T04:22:39.307Z,71.10
2023-03-22T04:25:11.884Z,71.30
2023-03-22T04:27:44.075Z,71.50
2023-03-22T04:30:18.901Z,72.30
2023-03-22T04:33:01.401Z,71.80
2023-03-22T04:35:46.568Z,71.90
2023-03-22T04:38:14.983Z,72.10
2023-03-22T04:40:46.640Z,72.10
2023-03-22T04:43:29.012Z,72.00
2023-03-22T04:46:02.053Z,71.90
2023-03-22T04:48:39.174Z,71.80
2023-03-22T04:51:07.932Z,71.80
2023-03-22T04:53:40.607Z,71.70
2023-03-22T04:56:12.014Z,71.60
2023-03-22T04:58:40.761Z,71.50
2023-03-22T05:01:09.251Z,71.50
2023-03-22T05:03:39.604Z,71.40
2023-03-22T05:06:08.029Z,71.40
2023-03-22T05:08:47.245Z,71.50
2023-03-22T05:11:17.097Z,71.40
2023-03-22T05:13:53.274Z,71.60
2023-03-22T05:16:21.042Z,71.80
2023-03-22T05:18:54.450Z,72.00
2023-03-22T05:21:28.494Z,72.10
2023-03-22T05:23:59.186Z,72.30
2023-03-22T05:26:26.967Z,72.30
2023-03-22T05:28:55.838Z,72.40
2023-03-22T05:31:34.943Z,72.50
2023-03-22T05:34:03.445Z,72.70
2023-03-22T05:36:36.519Z,72.80
2023-03-22T05:39:18.339Z,72.70
2023-03-22T05:41:46.410Z,72.60
2023-03-22T05:44:14.011Z,72.40
2023-03-22T05:46:50.755Z,72.30
2023-03-22T05:49:20.209Z,72.20
2023-03-22T05:51:47.373Z,72.10
2023-03-22T05:54:16.416Z,72.00
2023-03-22T05:56:49.349Z,71.90
2023-03-22T05:59:16.320Z,71.90
2023-03-22T06:01:43.384Z,72.00
2023-03-22T06:04:21.126Z,71.90
2023-03-22T06:07:10.968Z,71.90
2023-03-22T06:09:42.802Z,71.90
2023-03-22T06:12:16.224Z,71.90
2023-03-22T06:14:47.462Z,71.90
2023-03-22T06:17:24.964Z,71.80
2023-03-22T06:19:53.226Z,71.60
2023-03-22T06:22:21.151Z,71.10
2023-03-22T06:24:49.069Z,70.40
2023-03-22T06:27:22.118Z,69.60
2023-03-22T06:29:50.991Z,68.30
2023-03-22T06:32:26.758Z,66.60
2023-03-22T06:34:55.447Z,64.90
2023-03-22T06:37:25.645Z,63.20
2023-03-22T06:39:53.619Z,61.70
2023-03-22T06:42:24.065Z,60.40
2023-03-22T06:45:01.118Z,59.20
2023-03-22T06:47:33.064Z,57.70
2023-03-22T06:50:18.376Z,56.40
2023-03-22T06:53:08.383Z,54.80
2023-03-22T06:55:35.748Z,53.70
2023-03-22T06:58:11.987Z,52.80
2023-03-22T07:00:39.438Z,52.40
2023-03-22T07:03:07.701Z,52.00
2023-03-22T07:05:40.893Z,52.20
2023-03-22T07:08:08.034Z,52.40
2023-03-22T07:10:39.268Z,52.70
2023-03-22T07:13:06.586Z,52.60
2023-03-22T07:15:35.168Z,52.30
2023-03-22T07:18:07.922Z,52.00
2023-03-22T07:20:38.432Z,50.60
2023-03-22T07:23:05.675Z,49.10
2023-03-22T07:25:39.160Z,47.40
2023-03-22T07:28:17.413Z,45.90
2023-03-22T07:30:44.298Z,44.80
2023-03-22T07:33:12.420Z,43.50
2023-03-22T07:35:41.101Z,42.40
2023-03-22T07:38:08.013Z,41.90
2023-03-22T07:40:34.849Z,41.20
2023-03-22T07:43:02.613Z,40.50
2023-03-22T07:45:42.072Z,39.80
2023-03-22T07:48:28.910Z,38.90
2023-03-22T07:51:07.396Z,38.10
2023-03-22T07:53:34.399Z,37.10
2023-03-22T07:56:01.210Z,36.20
2023-03-22T07:58:28.076Z,35.40
2023-03-22T08:00:58.515Z,34.70
2023-03-22T08:03:52.513Z,34.30
2023-03-22T08:06:33.219Z,33.70
2023-03-22T08:09:01.257Z,32.80
2023-03-22T08:11:28.217Z,32.90
2023-03-22T08:13:55.378Z,32.40
2023-03-22T08:16:22.879Z,32.30
2023-03-22T08:18:49.838Z,32.20
2023-03-22T08:21:16.902Z,32.40
2023-03-22T08:23:46.264Z,32.40
2023-03-22T08:26:34.351Z,32.30
2023-03-22T08:29:11.317Z,32.50
2023-03-22T08:31:38.293Z,32.30
2023-03-22T08:34:05.540Z,32.00
2023-03-22T08:36:32.524Z,32.30
2023-03-22T08:39:04.280Z,32.80
2023-03-22T08:41:45.673Z,32.90
2023-03-22T08:44:13.433Z,32.80
2023-03-22T08:46:41.073Z,32.80
2023-03-22T08:49:10.453Z,33.30
2023-03-22T08:51:45.926Z,33.50
2023-03-22T08:54:17.479Z,33.80
2023-03-22T08:56:53.033Z,33.90
2023-03-22T08:59:38.270Z,34.10
2023-03-22T09:02:41.017Z,33.80
2023-03-22T09:05:08.172Z,34.00
2023-03-22T09:07:35.506Z,33.60
2023-03-22T09:10:11.777Z,33.50
2023-03-22T09:12:42.484Z,33.60
2023-03-22T09:15:10.048Z,33.30
2023-03-22T09:17:39.784Z,33.20
2023-03-22T09:20:12.800Z,32.80
2023-03-22T09:22:42.574Z,32.80
2023-03-22T09:25:12.833Z,33.30
2023-03-22T09:27:42.434Z,32.80
2023-03-22T09:30:09.918Z,32.80
2023-03-22T09:32:36.948Z,32.70
2023-03-22T09:35:06.345Z,32.80
2023-03-22T09:37:41.017Z,33.10
2023-03-22T09:40:08.134Z,33.40
2023-03-22T09:42:38.606Z,33.00
2023-03-22T09:45:08.142Z,33.50
2023-03-22T09:47:45.798Z,33.20
2023-03-22T09:50:12.999Z,33.20
2023-03-22T09:52:40.888Z,33.60
2023-03-22T09:55:16.852Z,33.00
2023-03-22T09:57:44.857Z,33.30
2023-03-22T10:00:13.152Z,33.20
2023-03-22T10:02:39.985Z,32.90
2023-03-22T10:05:19.114Z,33.80
2023-03-22T10:07:51.923Z,33.50
2023-03-22T10:10:20.785Z,32.40
2023-03-22T10:12:59.577Z,31.60
2023-03-22T10:15:34.532Z,31.50
2023-03-22T10:18:02.252Z,31.10
2023-03-22T10:20:29.049Z,30.50
2023-03-22T10:22:56.393Z,30.00
2023-03-22T10:25:27.949Z,30.00
2023-03-22T10:27:54.762Z,29.70
2023-03-22T10:30:26.374Z,29.30
2023-03-22T10:32:59.811Z,29.50
2023-03-22T10:35:26.837Z,29.10
2023-03-22T10:37:54.826Z,29.30
2023-03-22T10:40:26.294Z,29.20
2023-03-22T10:42:55.471Z,29.50
2023-03-22T10:45:23.985Z,30.00
2023-03-22T10:48:00.255Z,30.00
2023-03-22T10:50:32.045Z,30.70
2023-03-22T10:53:02.145Z,31.10
2023-03-22T10:55:29.020Z,31.80
2023-03-22T10:58:07.987Z,31.20
2023-03-22T11:00:38.428Z,30.80
2023-03-22T11:03:07.570Z,30.50
2023-03-22T11:05:34.437Z,29.80
2023-03-22T11:08:02.500Z,29.60
2023-03-22T11:10:32.773Z,30.00
2023-03-22T11:13:09.124Z,30.00
2023-03-22T11:15:37.244Z,30.00
2023-03-22T11:18:15.823Z,29.60
2023-03-22T11:20:52.082Z,29.70
2023-03-22T11:23:20.451Z,29.70
2023-03-22T11:25:48.708Z,29.80
2023-03-22T11:28:17.468Z,30.00
2023-03-22T11:30:57.780Z,30.20
2023-03-22T11:33:26.010Z,30.20
2023-03-22T11:35:56.768Z,30.70
2023-03-22T11:38:34.856Z,30.20
2023-03-22T11:41:02.934Z,30.00
2023-03-22T11:43:37.214Z,29.90
2023-03-22T11:46:04.788Z,30.00
2023-03-22T11:48:32.894Z,30.20
2023-03-22T11:51:10.766Z,30.20
2023-03-22T11:53:39.484Z,30.00
2023-03-22T11:56:07.653Z,30.00
2023-03-22T11:58:37.550Z,29.90
2023-03-22T12:01:04.939Z,29.80
2023-03-22T12:03:38.964Z,29.60
2023-03-22T12:06:13.142Z,30.00
2023-03-22T12:08:44.667Z,29.90
2023-03-22T12:11:14.602Z,30.10
2023-03-22T12:13:47.371Z,29.90
2023-03-22T12:16:17.754Z,30.10
2023-03-22T12:18:47.503Z,30.40
2023-03-22T12:21:15.672Z,30.60
2023-03-22T12:23:42.593Z,30.80
2023-03-22T12:26:12.164Z,30.10
2023-03-22T12:28:40.582Z,29.90
2023-03-22T12:31:11.711Z,29.60
2023-03-22T12:33:44.893Z,29.60
2023-03-22T12:36:15.325Z,29.60
2023-03-22T12:38:42.272Z,29.90
2023-03-22T12:41:23.004Z,30.00
2023-03-22T12:43:55.365Z,29.70
2023-03-22T12:46:25.237Z,30.30
2023-03-22T12:48:53.930Z,30.00
2023-03-22T12:51:24.817Z,30.10
2023-03-22T12:53:53.170Z,30.00
2023-03-22T12:56:38.609Z,30.30
2023-03-22T12:59:08.091Z,29.60
2023-03-22T13:01:46.405Z,29.50
2023-03-22T13:04:27.498Z,29.50
2023-03-22T13:06:56.030Z,29.30
2023-03-22T13:09:29.038Z,29.00
2023-03-22T13:12:19.042Z,29.20
2023-03-22T13:14:58.011Z,29.00
2023-03-22T13:17:25.296Z,29.60
2023-03-22T13:19:53.798Z,29.60
2023-03-22T13:22:50.375Z,29.70
2023-03-22T13:25:18.902Z,29.80
2023-03-22T13:27:46.055Z,30.00
2023-03-22T13:30:21.947Z,30.00
2023-03-22T13:32:56.311Z,30.10
2023-03-22T13:35:42.558Z,30.40
2023-03-22T13:38:16.133Z,30.30
2023-03-22T13:41:03.244Z,30.00
2023-03-22T13:43:30.151Z,30.30
2023-03-22T13:46:17.268Z,29.90
2023-03-22T13:48:44.354Z,29.40
2023-03-22T13:51:16.440Z,29.00
2023-03-22T13:53:48.029Z,28.80
2023-03-22T13:56:28.004Z,29.10
2023-03-22T13:58:54.824Z,29.50
2023-03-22T14:01:21.649Z,30.00
2023-03-22T14:03:50.398Z,30.30
2023-03-22T14:06:34.082Z,30.90
2023-03-22T14:09:09.423Z,31.00
2023-03-22T14:11:44.258Z,31.10
2023-03-22T14:14:13.034Z,31.40
2023-03-22T14:16:45.388Z,31.60
2023-03-22T14:19:27.823Z,32.00
